Terminal Aerodrome Forecast
Issued by NWS Cheyenne, WY

Home | Current Version | Previous Version | Text Only | Print | Product List | Glossary On
Versions: 1 2 3 4 5 6 7 8 9 10 11 12 13 14 15 16 17 18 19 20 21 22 23 24 25 26 27 28 29 30 31 32 33 34 35 36 37 38
000
FTUS45 KCYS 112100 AAB
TAFCYS
TAF AMD
KCYS 112119Z 1121/1218 02005KT P6SM -SHRA BKN120
      TEMPO 1123/1201 VRB15G26KT 4SM TSRA BKN050CB OVC120
     FM120200 06008KT 5SM -SHRA VCTS BKN050CB OVC100
     FM120700 33006KT P6SM SCT030 BKN050
     FM121600 01008KT P6SM VCSH OVC050=

USA.gov is the U.S. government's official web portal to all federal, state and local government web resources and services.